createdAt,value
2019-05-05T00:00:14.263Z,0.00
2019-05-05T00:01:11.987Z,0.00
2019-05-05T00:02:11.972Z,0.00
2019-05-05T00:03:11.964Z,0.00
2019-05-05T00:04:11.951Z,0.00
2019-05-05T00:05:11.946Z,0.00
2019-05-05T00:06:11.928Z,0.00
2019-05-05T00:07:11.917Z,0.00
2019-05-05T00:08:11.910Z,0.00
2019-05-05T00:09:11.897Z,0.00
2019-05-05T00:10:11.889Z,0.00
2019-05-05T00:11:11.880Z,0.00
2019-05-05T00:12:11.866Z,0.00
2019-05-05T00:13:11.855Z,0.00
2019-05-05T00:14:11.843Z,0.00
2019-05-05T00:15:11.834Z,0.00
2019-05-05T00:16:11.825Z,0.00
2019-05-05T00:17:11.813Z,0.00
2019-05-05T00:18:11.802Z,0.00
2019-05-05T00:19:11.789Z,0.00
2019-05-05T00:20:11.782Z,0.00
2019-05-05T00:21:11.773Z,0.00
2019-05-05T00:22:11.758Z,0.00
2019-05-05T00:23:11.747Z,0.00
2019-05-05T00:24:11.737Z,0.00
2019-05-05T00:25:11.730Z,0.00
2019-05-05T00:26:11.715Z,0.00
2019-05-05T00:27:11.707Z,0.00
2019-05-05T00:28:11.696Z,0.00
2019-05-05T00:29:11.686Z,0.00
2019-05-05T00:30:11.675Z,0.00
2019-05-05T00:31:11.666Z,0.00
2019-05-05T00:32:11.654Z,0.00
2019-05-05T00:33:11.643Z,0.00
2019-05-05T00:34:11.631Z,0.00
2019-05-05T00:35:11.621Z,0.00
2019-05-05T00:36:11.617Z,0.00
2019-05-05T00:37:11.601Z,0.00
2019-05-05T00:38:11.589Z,0.00
2019-05-05T00:39:11.578Z,0.00
2019-05-05T00:40:11.568Z,0.00
2019-05-05T00:41:11.557Z,0.00
2019-05-05T00:42:11.550Z,0.00
2019-05-05T00:43:11.536Z,0.00
2019-05-05T00:44:11.526Z,0.00
2019-05-05T00:45:11.515Z,0.00
2019-05-05T00:46:11.505Z,0.00
2019-05-05T00:47:11.492Z,0.00
2019-05-05T00:48:11.483Z,0.00
2019-05-05T00:49:11.471Z,0.00
2019-05-05T00:50:11.461Z,0.00
2019-05-05T00:51:11.451Z,0.00
2019-05-05T00:52:11.443Z,0.00
2019-05-05T00:53:11.430Z,0.00
2019-05-05T00:54:11.422Z,0.00
2019-05-05T00:55:11.409Z,0.00
2019-05-05T00:56:11.399Z,0.00
2019-05-05T00:57:11.387Z,0.00
2019-05-05T00:58:11.378Z,0.00
2019-05-05T00:59:11.366Z,0.00
2019-05-05T01:00:11.355Z,0.00
2019-05-05T01:01:11.348Z,0.00
2019-05-05T01:02:11.337Z,0.00
2019-05-05T01:03:11.323Z,0.00
2019-05-05T01:04:11.317Z,0.00
2019-05-05T01:05:11.302Z,0.00
2019-05-05T01:06:11.292Z,0.00
2019-05-05T01:07:11.281Z,0.00
2019-05-05T01:08:11.268Z,0.00
2019-05-05T01:09:11.258Z,0.00
2019-05-05T01:10:11.249Z,0.00
2019-05-05T01:11:11.238Z,0.00
2019-05-05T01:12:11.234Z,0.00
2019-05-05T01:13:11.218Z,0.00
2019-05-05T01:14:11.204Z,0.00
2019-05-05T01:15:11.196Z,0.00
2019-05-05T01:16:11.187Z,0.00
2019-05-05T01:17:11.175Z,0.00
2019-05-05T01:18:11.165Z,0.00
2019-05-05T01:19:11.154Z,0.00
2019-05-05T01:20:11.142Z,0.00
2019-05-05T01:21:11.136Z,0.00
2019-05-05T01:22:11.121Z,0.00
2019-05-05T01:23:11.115Z,0.00
2019-05-05T01:24:11.101Z,0.00
2019-05-05T01:25:11.090Z,0.00
2019-05-05T01:26:11.078Z,0.00
2019-05-05T01:27:11.068Z,0.00
2019-05-05T01:28:11.058Z,0.00
2019-05-05T01:29:11.055Z,0.00
2019-05-05T01:30:11.036Z,0.00
2019-05-05T01:31:11.025Z,0.00
2019-05-05T01:32:11.019Z,0.00
2019-05-05T01:33:11.005Z,0.00
2019-05-05T01:34:10.993Z,0.00
2019-05-05T01:35:10.998Z,0.00
2019-05-05T01:36:10.973Z,0.00
2019-05-05T01:37:10.961Z,0.00
2019-05-05T01:38:10.951Z,0.00
2019-05-05T01:39:10.946Z,0.00
2019-05-05T01:40:10.930Z,0.00
2019-05-05T01:41:10.918Z,0.00
2019-05-05T01:42:10.908Z,0.00
2019-05-05T01:43:10.898Z,0.00
2019-05-05T01:44:10.886Z,0.00
2019-05-05T01:45:10.882Z,0.00
2019-05-05T01:46:10.865Z,0.00
2019-05-05T01:47:10.854Z,0.00
2019-05-05T01:48:10.844Z,0.00
2019-05-05T01:49:10.832Z,0.00
2019-05-05T01:50:18.307Z,0.00
2019-05-05T01:51:11.819Z,0.00
2019-05-05T01:52:10.804Z,0.00
2019-05-05T01:53:10.793Z,0.00
2019-05-05T01:54:10.779Z,0.00
2019-05-05T01:55:10.771Z,0.00
2019-05-05T01:56:10.758Z,0.00
2019-05-05T01:57:10.750Z,0.00
2019-05-05T01:58:10.740Z,0.00
2019-05-05T01:59:10.727Z,0.00
2019-05-05T02:00:10.716Z,0.00
2019-05-05T02:01:10.703Z,0.00
2019-05-05T02:02:10.695Z,0.00
2019-05-05T02:03:10.683Z,0.00
2019-05-05T02:04:10.681Z,0.00
2019-05-05T02:05:10.663Z,0.00
2019-05-05T02:06:10.651Z,0.00
2019-05-05T02:07:10.640Z,0.00
2019-05-05T02:08:10.631Z,0.00
2019-05-05T02:09:10.619Z,0.00
2019-05-05T02:10:10.611Z,0.00
2019-05-05T02:11:10.598Z,0.00
2019-05-05T02:12:10.587Z,0.00
2019-05-05T02:13:10.577Z,0.00
2019-05-05T02:14:10.568Z,0.00
2019-05-05T02:15:10.556Z,0.00
2019-05-05T02:16:10.549Z,0.00
2019-05-05T02:17:10.535Z,0.00
2019-05-05T02:18:10.523Z,0.00
2019-05-05T02:19:10.512Z,0.00
2019-05-05T02:20:10.503Z,0.00
2019-05-05T02:21:10.492Z,0.00
2019-05-05T02:22:10.486Z,0.00
2019-05-05T02:23:10.468Z,0.00
2019-05-05T02:24:10.460Z,0.00
2019-05-05T02:25:10.450Z,0.00
2019-05-05T02:26:10.437Z,0.00
2019-05-05T02:27:10.426Z,0.00
2019-05-05T02:28:10.415Z,0.00
2019-05-05T02:29:10.405Z,0.00
2019-05-05T02:30:10.405Z,0.00
2019-05-05T02:31:10.385Z,0.00
2019-05-05T02:32:10.375Z,0.00
2019-05-05T02:33:10.364Z,0.00
2019-05-05T02:34:10.354Z,0.00
2019-05-05T02:35:10.341Z,0.00
2019-05-05T02:36:10.331Z,0.00
2019-05-05T02:37:10.325Z,0.00
2019-05-05T02:38:10.309Z,0.00
2019-05-05T02:39:10.303Z,0.00
2019-05-05T02:40:10.289Z,0.00
2019-05-05T02:41:10.278Z,0.00
2019-05-05T02:42:10.268Z,0.00
2019-05-05T02:43:10.258Z,0.00
2019-05-05T02:44:10.253Z,0.00
2019-05-05T02:45:10.234Z,0.00
2019-05-05T02:46:10.233Z,0.00
2019-05-05T02:47:10.220Z,0.00
2019-05-05T02:48:10.211Z,0.00
2019-05-05T02:49:10.198Z,0.00
2019-05-05T02:50:10.186Z,0.00
2019-05-05T02:51:10.172Z,0.00
2019-05-05T02:52:10.168Z,0.00
2019-05-05T02:53:10.150Z,4.00
2019-05-05T02:54:10.139Z,4.00
2019-05-05T02:55:10.134Z,4.00
2019-05-05T02:56:10.120Z,0.00
2019-05-05T02:57:10.112Z,4.00
2019-05-05T02:58:10.099Z,4.00
2019-05-05T02:59:10.085Z,4.00
2019-05-05T03:00:10.076Z,4.00
2019-05-05T03:01:10.065Z,4.00
2019-05-05T03:02:10.055Z,8.00
2019-05-05T03:03:10.047Z,8.00
2019-05-05T03:04:10.034Z,8.00
2019-05-05T03:05:10.022Z,12.00
2019-05-05T03:06:10.012Z,12.00
2019-05-05T03:07:10.001Z,12.00
2019-05-05T03:08:09.990Z,16.00
2019-05-05T03:09:09.987Z,20.00
2019-05-05T03:10:09.968Z,20.00
2019-05-05T03:11:09.960Z,24.00
2019-05-05T03:12:11.167Z,28.00
2019-05-05T03:13:09.938Z,32.00
2019-05-05T03:14:09.927Z,36.00
2019-05-05T03:15:09.916Z,40.00
2019-05-05T03:16:09.906Z,44.00
2019-05-05T03:17:09.896Z,48.00
2019-05-05T03:18:09.885Z,56.00
2019-05-05T03:19:09.876Z,60.00
2019-05-05T03:20:09.865Z,68.00
2019-05-05T03:21:09.853Z,80.00
2019-05-05T03:22:09.842Z,88.00
2019-05-05T03:23:09.831Z,96.00
2019-05-05T03:24:09.821Z,104.00
2019-05-05T03:25:09.809Z,116.00
2019-05-05T03:26:09.799Z,128.00
2019-05-05T03:27:09.789Z,140.00
2019-05-05T03:28:09.779Z,152.00
2019-05-05T03:29:09.768Z,168.00
2019-05-05T03:30:09.761Z,180.00
2019-05-05T03:31:09.747Z,200.00
2019-05-05T03:32:11.599Z,216.00
2019-05-05T03:33:09.725Z,232.00
2019-05-05T03:34:09.715Z,252.00
2019-05-05T03:35:09.703Z,268.00
2019-05-05T03:36:09.699Z,288.00
2019-05-05T03:37:09.681Z,308.00
2019-05-05T03:38:09.672Z,332.00
2019-05-05T03:39:09.661Z,356.00
2019-05-05T03:40:09.651Z,380.00
2019-05-05T03:41:09.641Z,404.00
2019-05-05T03:42:09.643Z,428.00
2019-05-05T03:43:09.618Z,456.00
2019-05-05T03:44:09.611Z,484.00
2019-05-05T03:45:09.598Z,508.00
2019-05-05T03:46:09.588Z,536.00
2019-05-05T03:47:09.577Z,560.00
2019-05-05T03:48:09.566Z,584.00
2019-05-05T03:49:09.556Z,616.00
2019-05-05T03:50:09.547Z,644.00
2019-05-05T03:51:18.946Z,668.00
2019-05-05T03:52:10.524Z,696.00
2019-05-05T03:53:09.514Z,724.00
2019-05-05T03:54:09.502Z,752.00
2019-05-05T03:55:09.494Z,784.00
2019-05-05T03:56:09.485Z,808.00
2019-05-05T03:57:09.471Z,836.00
2019-05-05T03:58:09.462Z,868.00
2019-05-05T03:59:09.450Z,896.00
2019-05-05T04:00:09.440Z,920.00
2019-05-05T04:01:09.431Z,952.00
2019-05-05T04:02:09.423Z,980.00
2019-05-05T04:03:09.415Z,1012.00
2019-05-05T04:04:09.399Z,1040.00
2019-05-05T04:05:09.386Z,1068.00
2019-05-05T04:06:09.375Z,1096.00
2019-05-05T04:07:09.367Z,1120.00
2019-05-05T04:08:09.359Z,1152.00
2019-05-05T04:09:09.345Z,1180.00
2019-05-05T04:10:09.333Z,1208.00
2019-05-05T04:11:09.325Z,1232.00
2019-05-05T04:12:09.313Z,1260.00
2019-05-05T04:13:09.301Z,1288.00
2019-05-05T04:14:09.302Z,1312.00
2019-05-05T04:15:09.280Z,1340.00
2019-05-05T04:16:09.270Z,1364.00
2019-05-05T04:17:09.261Z,1392.00
2019-05-05T04:18:09.249Z,1416.00
2019-05-05T04:19:09.237Z,1444.00
2019-05-05T04:20:09.238Z,1472.00
2019-05-05T04:21:09.217Z,1496.00
2019-05-05T04:22:09.205Z,1524.00
2019-05-05T04:23:09.205Z,1552.00
2019-05-05T04:24:09.185Z,1572.00
2019-05-05T04:25:09.175Z,1596.00
2019-05-05T04:26:09.164Z,1620.00
2019-05-05T04:27:09.153Z,1648.00
2019-05-05T04:28:09.143Z,1668.00
2019-05-05T04:29:09.134Z,1692.00
2019-05-05T04:30:09.123Z,1720.00
2019-05-05T04:31:09.110Z,1744.00
2019-05-05T04:32:09.098Z,1772.00
2019-05-05T04:33:09.095Z,1800.00
2019-05-05T04:34:09.086Z,1824.00
2019-05-05T04:35:09.068Z,1852.00
2019-05-05T04:36:09.056Z,1876.00
2019-05-05T04:37:09.044Z,1900.00
2019-05-05T04:38:09.033Z,1924.00
2019-05-05T04:39:09.023Z,1952.00
2019-05-05T04:40:09.017Z,1976.00
2019-05-05T04:41:09.003Z,2008.00
2019-05-05T04:42:08.992Z,2028.00
2019-05-05T04:43:08.988Z,2048.00
2019-05-05T04:44:08.970Z,2068.00
2019-05-05T04:45:08.960Z,2092.00
2019-05-05T04:46:08.948Z,2120.00
2019-05-05T04:47:08.941Z,2144.00
2019-05-05T04:48:08.933Z,2168.00
2019-05-05T04:49:08.922Z,2192.00
2019-05-05T04:50:08.909Z,2216.00
2019-05-05T04:51:08.896Z,2240.00
2019-05-05T04:52:08.889Z,2264.00
2019-05-05T04:53:08.877Z,2292.00
2019-05-05T04:54:08.864Z,2316.00
2019-05-05T04:55:08.859Z,2340.00
2019-05-05T04:56:08.842Z,2372.00
2019-05-05T04:57:08.832Z,2396.00
2019-05-05T04:58:08.825Z,2424.00
2019-05-05T04:59:08.813Z,2460.00
2019-05-05T05:00:08.800Z,2508.00
2019-05-05T05:01:08.796Z,2560.00
2019-05-05T05:02:08.779Z,2600.00
2019-05-05T05:03:08.771Z,2612.00
2019-05-05T05:04:08.758Z,2632.00
2019-05-05T05:05:08.747Z,2664.00
2019-05-05T05:06:08.737Z,2700.00
2019-05-05T05:07:08.736Z,2736.00
2019-05-05T05:08:08.714Z,2776.00
2019-05-05T05:09:08.712Z,2808.00
2019-05-05T05:10:08.693Z,2848.00
2019-05-05T05:11:08.689Z,2892.00
2019-05-05T05:12:08.679Z,2920.00
2019-05-05T05:13:08.665Z,2968.00
2019-05-05T05:14:08.654Z,3008.00
2019-05-05T05:15:08.641Z,3040.00
2019-05-05T05:16:08.634Z,3068.00
2019-05-05T05:17:08.619Z,3100.00
2019-05-05T05:18:08.618Z,3132.00
2019-05-05T05:19:08.598Z,3168.00
2019-05-05T05:20:08.588Z,3212.00
2019-05-05T05:21:08.578Z,3244.00
2019-05-05T05:22:08.568Z,3280.00
2019-05-05T05:23:08.555Z,3312.00
2019-05-05T05:24:08.545Z,3376.00
2019-05-05T05:25:08.536Z,3480.00
2019-05-05T05:26:08.525Z,3580.00
2019-05-05T05:27:08.515Z,3652.00
2019-05-05T05:28:08.503Z,3732.00
2019-05-05T05:29:08.492Z,3800.00
2019-05-05T05:30:08.483Z,3796.00
2019-05-05T05:31:08.470Z,3792.00
2019-05-05T05:32:08.460Z,3820.00
2019-05-05T05:33:08.451Z,3880.00
2019-05-05T05:34:08.442Z,4128.00
2019-05-05T05:35:08.429Z,4404.00
2019-05-05T05:36:08.419Z,4716.00
2019-05-05T05:37:08.407Z,4732.00
2019-05-05T05:38:08.401Z,4572.00
2019-05-05T05:39:08.393Z,4544.00
2019-05-05T05:40:08.377Z,4484.00
2019-05-05T05:41:08.364Z,4364.00
2019-05-05T05:42:08.360Z,4560.00
2019-05-05T05:43:08.344Z,4960.00
2019-05-05T05:44:08.335Z,5404.00
2019-05-05T05:45:08.321Z,5536.00
2019-05-05T05:46:08.315Z,5500.00
2019-05-05T05:47:08.300Z,5448.00
2019-05-05T05:48:08.293Z,5660.00
2019-05-05T05:49:08.290Z,5904.00
2019-05-05T05:50:08.272Z,6076.00
2019-05-05T05:51:08.265Z,6396.00
2019-05-05T05:52:15.977Z,6196.00
2019-05-05T05:53:09.246Z,5712.00
2019-05-05T05:54:08.234Z,5256.00
2019-05-05T05:55:08.223Z,5212.00
2019-05-05T05:56:08.208Z,5564.00
2019-05-05T05:57:08.202Z,5932.00
2019-05-05T05:58:08.187Z,6148.00
2019-05-05T05:59:08.176Z,6168.00
2019-05-05T06:00:08.170Z,6328.00
2019-05-05T06:01:08.155Z,6376.00
2019-05-05T06:02:11.816Z,6308.00
2019-05-05T06:03:09.133Z,6268.00
2019-05-05T06:04:08.168Z,6308.00
2019-05-05T06:05:08.116Z,6740.00
2019-05-05T06:06:08.100Z,7220.00
2019-05-05T06:07:08.095Z,7648.00
2019-05-05T06:08:08.079Z,7880.00
2019-05-05T06:09:08.069Z,8188.00
2019-05-05T06:10:21.102Z,8284.00
2019-05-05T06:11:09.046Z,8340.00
2019-05-05T06:12:08.039Z,8388.00
2019-05-05T06:13:08.030Z,8448.00
2019-05-05T06:14:08.024Z,8516.00
2019-05-05T06:15:08.008Z,8612.00
2019-05-05T06:16:07.996Z,8684.00
2019-05-05T06:17:07.987Z,8764.00
2019-05-05T06:18:07.972Z,8856.00
2019-05-05T06:19:10.218Z,8932.00
2019-05-05T06:20:07.958Z,8996.00
2019-05-05T06:21:07.939Z,9060.00
2019-05-05T06:22:07.931Z,9096.00
2019-05-05T06:23:07.921Z,9144.00
2019-05-05T06:24:07.907Z,9140.00
2019-05-05T06:25:07.897Z,9180.00
2019-05-05T06:26:07.886Z,9216.00
2019-05-05T06:27:07.874Z,9232.00
2019-05-05T06:28:07.866Z,9236.00
2019-05-05T06:29:07.854Z,9268.00
2019-05-05T06:30:07.844Z,9280.00
2019-05-05T06:31:07.832Z,9312.00
2019-05-05T06:32:07.821Z,9328.00
2019-05-05T06:33:07.811Z,9344.00
2019-05-05T06:34:07.799Z,9356.00
2019-05-05T06:35:07.798Z,9380.00
2019-05-05T06:36:07.777Z,9444.00
2019-05-05T06:37:07.766Z,9492.00
2019-05-05T06:38:07.755Z,9520.00
2019-05-05T06:39:07.744Z,9536.00
2019-05-05T06:40:07.736Z,9640.00
2019-05-05T06:41:07.723Z,9728.00
2019-05-05T06:42:07.719Z,9796.00
2019-05-05T06:43:07.701Z,9948.00
2019-05-05T06:44:07.693Z,10036.00
2019-05-05T06:45:07.682Z,10124.00
2019-05-05T06:46:07.672Z,10204.00
2019-05-05T06:47:07.657Z,10288.00
2019-05-05T06:48:07.649Z,10344.00
2019-05-05T06:49:07.637Z,10432.00
2019-05-05T06:50:07.627Z,10488.00
2019-05-05T06:51:07.622Z,10560.00
2019-05-05T06:52:07.605Z,10700.00
2019-05-05T06:53:07.593Z,10748.00
2019-05-05T06:54:07.583Z,10808.00
2019-05-05T06:55:07.572Z,10848.00
2019-05-05T06:56:07.563Z,10904.00
2019-05-05T06:57:07.551Z,10988.00
2019-05-05T06:58:07.543Z,11028.00
2019-05-05T06:59:07.529Z,11012.00
2019-05-05T07:00:07.518Z,10992.00
2019-05-05T07:01:07.509Z,11024.00
2019-05-05T07:02:07.495Z,11220.00
2019-05-05T07:03:07.948Z,11188.00
2019-05-05T07:04:07.476Z,11200.00
2019-05-05T07:05:07.465Z,11348.00
2019-05-05T07:06:07.455Z,11504.00
2019-05-05T07:07:07.445Z,11608.00
2019-05-05T07:08:07.432Z,11860.00
2019-05-05T07:09:07.426Z,11760.00
2019-05-05T07:10:07.411Z,11584.00
2019-05-05T07:11:07.443Z,11684.00
2019-05-05T07:12:07.391Z,11752.00
2019-05-05T07:13:07.378Z,11720.00
2019-05-05T07:14:07.368Z,11836.00
2019-05-05T07:15:07.360Z,11920.00
2019-05-05T07:16:07.353Z,11964.00
2019-05-05T07:17:07.338Z,12096.00
2019-05-05T07:18:07.328Z,12100.00
2019-05-05T07:19:07.314Z,12024.00
2019-05-05T07:20:07.304Z,12160.00
2019-05-05T07:21:07.293Z,12752.00
2019-05-05T07:22:07.283Z,13700.00
2019-05-05T07:23:07.272Z,13832.00
2019-05-05T07:24:07.261Z,13256.00
2019-05-05T07:25:07.249Z,12976.00
2019-05-05T07:26:07.241Z,12916.00
2019-05-05T07:27:07.230Z,13052.00
2019-05-05T07:28:07.220Z,13392.00
2019-05-05T07:29:07.207Z,13104.00
2019-05-05T07:30:07.210Z,12976.00
2019-05-05T07:31:07.208Z,12880.00
2019-05-05T07:32:07.170Z,13036.00
2019-05-05T07:33:07.158Z,13188.00
2019-05-05T07:34:07.151Z,13296.00
2019-05-05T07:35:07.142Z,13776.00
2019-05-05T07:36:07.125Z,14736.00
2019-05-05T07:37:07.115Z,8368.00
2019-05-05T07:38:07.103Z,14932.00
2019-05-05T07:39:07.097Z,14984.00
2019-05-05T07:40:07.084Z,15128.00
2019-05-05T07:41:07.070Z,12404.00
2019-05-05T07:42:07.060Z,16064.00
2019-05-05T07:43:07.052Z,10108.00
2019-05-05T07:44:07.039Z,9972.00
2019-05-05T07:45:19.374Z,26944.00
2019-05-05T07:46:08.015Z,55456.00
2019-05-05T07:47:07.007Z,74944.00
2019-05-05T07:48:06.994Z,75616.00
2019-05-05T07:49:06.983Z,76928.00
2019-05-05T07:50:06.973Z,73760.00
2019-05-05T07:51:06.962Z,24448.00
2019-05-05T07:52:07.006Z,80256.00
2019-05-05T07:53:14.515Z,82112.00
2019-05-05T07:54:07.929Z,80704.00
2019-05-05T07:55:06.919Z,80160.00
2019-05-05T07:56:07.745Z,81248.00
2019-05-05T07:57:06.899Z,83776.00
2019-05-05T07:58:06.888Z,88576.00
2019-05-05T07:59:06.879Z,90976.00
2019-05-05T08:00:06.867Z,87488.00
2019-05-05T08:01:06.856Z,84480.00
2019-05-05T08:02:06.848Z,84416.00
2019-05-05T08:03:06.836Z,85728.00
2019-05-05T08:04:06.824Z,90080.00
2019-05-05T08:05:06.815Z,88224.00
2019-05-05T08:06:06.805Z,86432.00
2019-05-05T08:07:06.793Z,90112.00
2019-05-05T08:08:06.784Z,90688.00
2019-05-05T08:09:06.772Z,91488.00
2019-05-05T08:10:06.764Z,92000.00
2019-05-05T08:11:06.753Z,87712.00
2019-05-05T08:12:06.740Z,84288.00
2019-05-05T08:13:06.731Z,86656.00
2019-05-05T08:14:06.720Z,86752.00
2019-05-05T08:15:06.710Z,90048.00
2019-05-05T08:16:06.699Z,93408.00
2019-05-05T08:17:06.689Z,92704.00
2019-05-05T08:18:06.679Z,94208.00
2019-05-05T08:19:06.667Z,89952.00
2019-05-05T08:20:06.659Z,87840.00
2019-05-05T08:21:06.659Z,89344.00
2019-05-05T08:22:06.638Z,89856.00
2019-05-05T08:23:08.305Z,94624.00
2019-05-05T08:24:06.618Z,98144.00
2019-05-05T08:25:06.608Z,97056.00
2019-05-05T08:26:06.598Z,94880.00
2019-05-05T08:27:06.618Z,96256.00
2019-05-05T08:28:06.580Z,97344.00
2019-05-05T08:29:06.566Z,99872.00
2019-05-05T08:30:06.557Z,102624.00
2019-05-05T08:31:06.546Z,98624.00
2019-05-05T08:32:06.537Z,96992.00
2019-05-05T08:33:06.525Z,97600.00
2019-05-05T08:34:06.522Z,97376.00
2019-05-05T08:35:06.513Z,80672.00
2019-05-05T08:36:06.494Z,64608.00
2019-05-05T08:37:06.485Z,13496.00
2019-05-05T08:38:06.477Z,105472.00
2019-05-05T08:39:06.465Z,103200.00
2019-05-05T08:40:06.458Z,105504.00
2019-05-05T08:41:06.444Z,100064.00
2019-05-05T08:42:06.433Z,97152.00
2019-05-05T08:43:06.423Z,100288.00
2019-05-05T08:44:06.412Z,104128.00
2019-05-05T08:45:06.405Z,107904.00
2019-05-05T08:46:06.397Z,105504.00
2019-05-05T08:47:06.382Z,100320.00
2019-05-05T08:48:06.375Z,98624.00
2019-05-05T08:49:06.361Z,99040.00
2019-05-05T08:50:06.352Z,102048.00
2019-05-05T08:51:06.342Z,100448.00
2019-05-05T08:52:06.337Z,100992.00
2019-05-05T08:53:08.485Z,94112.00
2019-05-05T08:54:06.312Z,96064.00
2019-05-05T08:55:06.303Z,100832.00
2019-05-05T08:56:06.293Z,107040.00
2019-05-05T08:57:06.282Z,112576.00
2019-05-05T08:58:06.275Z,110272.00
2019-05-05T08:59:06.265Z,105920.00
2019-05-05T09:00:06.252Z,109664.00
2019-05-05T09:01:06.245Z,77952.00
2019-05-05T09:02:06.235Z,104640.00
2019-05-05T09:03:06.225Z,19680.00
2019-05-05T09:04:06.215Z,44800.00
2019-05-05T09:05:06.204Z,108384.00
2019-05-05T09:06:06.193Z,104224.00
2019-05-05T09:07:06.188Z,105792.00
2019-05-05T09:08:06.174Z,105696.00
2019-05-05T09:09:06.164Z,103776.00
2019-05-05T09:10:06.154Z,102496.00
2019-05-05T09:11:06.149Z,102720.00
2019-05-05T09:12:06.135Z,109664.00
2019-05-05T09:13:06.125Z,115104.00
2019-05-05T09:14:06.115Z,121440.00
2019-05-05T09:15:06.106Z,116000.00
2019-05-05T09:16:06.099Z,111072.00
2019-05-05T09:17:06.086Z,111168.00
2019-05-05T09:18:06.078Z,45792.00
2019-05-05T09:19:06.066Z,22496.00
2019-05-05T09:20:06.056Z,15916.00
2019-05-05T09:21:06.046Z,15504.00
2019-05-05T09:22:08.700Z,17216.00
2019-05-05T09:23:06.028Z,121888.00
2019-05-05T09:24:06.016Z,66240.00
2019-05-05T09:25:06.007Z,12192.00
2019-05-05T09:26:05.994Z,9580.00
2019-05-05T09:27:05.985Z,9308.00
2019-05-05T09:28:06.283Z,10444.00
2019-05-05T09:29:05.962Z,21248.00
2019-05-05T09:30:05.953Z,106304.00
2019-05-05T09:31:05.944Z,103232.00
2019-05-05T09:32:05.933Z,17396.00
2019-05-05T09:33:05.922Z,107808.00
2019-05-05T09:34:05.919Z,22208.00
2019-05-05T09:35:05.905Z,107936.00
2019-05-05T09:36:05.893Z,17296.00
2019-05-05T09:37:05.887Z,94432.00
2019-05-05T09:38:05.874Z,116352.00
2019-05-05T09:39:05.861Z,16488.00
2019-05-05T09:40:05.849Z,90336.00
2019-05-05T09:41:05.840Z,116704.00
2019-05-05T09:42:05.826Z,115520.00
2019-05-05T09:43:05.818Z,108544.00
2019-05-05T09:44:05.805Z,116480.00
2019-05-05T09:45:05.798Z,109952.00
2019-05-05T09:46:05.787Z,112288.00
2019-05-05T09:47:05.778Z,112704.00
2019-05-05T09:48:05.766Z,112704.00
2019-05-05T09:49:05.756Z,113568.00
2019-05-05T09:50:05.751Z,115712.00
2019-05-05T09:51:05.738Z,21952.00
2019-05-05T09:52:05.730Z,22368.00
2019-05-05T09:53:05.716Z,18656.00
2019-05-05T09:54:13.926Z,64992.00
2019-05-05T09:55:06.693Z,120480.00
2019-05-05T09:56:05.685Z,125248.00
2019-05-05T09:57:05.677Z,117952.00
2019-05-05T09:58:05.664Z,123776.00
2019-05-05T09:59:05.654Z,120960.00
2019-05-05T10:00:05.646Z,108224.00
2019-05-05T10:01:05.639Z,20480.00
2019-05-05T10:02:05.625Z,60896.00
2019-05-05T10:03:05.613Z,29696.00
2019-05-05T10:04:05.604Z,112928.00
2019-05-05T10:05:05.594Z,110496.00
2019-05-05T10:06:05.590Z,66336.00
2019-05-05T10:07:05.595Z,118048.00
2019-05-05T10:08:05.565Z,113504.00
2019-05-05T10:09:05.553Z,112224.00
2019-05-05T10:10:05.543Z,114016.00
2019-05-05T10:11:05.535Z,108736.00
2019-05-05T10:12:05.523Z,111968.00
2019-05-05T10:13:05.513Z,18976.00
2019-05-05T10:14:05.507Z,17152.00
2019-05-05T10:15:07.464Z,17952.00
2019-05-05T10:16:05.483Z,16376.00
2019-05-05T10:17:05.478Z,20736.00
2019-05-05T10:18:05.463Z,15244.00
2019-05-05T10:19:05.452Z,14904.00
2019-05-05T10:20:05.441Z,14820.00
2019-05-05T10:21:05.431Z,15388.00
2019-05-05T10:22:05.418Z,22752.00
2019-05-05T10:23:05.409Z,27296.00
2019-05-05T10:24:05.397Z,133760.00
2019-05-05T10:25:05.387Z,126272.00
2019-05-05T10:26:05.384Z,124512.00
2019-05-05T10:27:05.372Z,111840.00
2019-05-05T10:28:05.356Z,24064.00
2019-05-05T10:29:05.349Z,17824.00
2019-05-05T10:30:05.334Z,17248.00
2019-05-05T10:31:05.324Z,16532.00
2019-05-05T10:32:05.317Z,16100.00
2019-05-05T10:33:05.319Z,15592.00
2019-05-05T10:34:05.294Z,14896.00
2019-05-05T10:35:05.282Z,14508.00
2019-05-05T10:36:05.270Z,13944.00
2019-05-05T10:37:05.261Z,13704.00
2019-05-05T10:38:05.252Z,14088.00
2019-05-05T10:39:05.243Z,14880.00
2019-05-05T10:40:05.238Z,15688.00
2019-05-05T10:41:05.223Z,16640.00
2019-05-05T10:42:05.209Z,40480.00
2019-05-05T10:43:05.194Z,17152.00
2019-05-05T10:44:05.187Z,17184.00
2019-05-05T10:45:05.174Z,19136.00
2019-05-05T10:46:05.162Z,83808.00
2019-05-05T10:47:05.157Z,18432.00
2019-05-05T10:48:05.143Z,15568.00
2019-05-05T10:49:05.131Z,15312.00
2019-05-05T10:50:05.122Z,14976.00
2019-05-05T10:51:05.109Z,16008.00
2019-05-05T10:52:05.097Z,53568.00
2019-05-05T10:53:05.087Z,31936.00
2019-05-05T10:54:05.076Z,72672.00
2019-05-05T10:55:05.064Z,67328.00
2019-05-05T10:56:05.057Z,77696.00
2019-05-05T10:57:05.043Z,115136.00
2019-05-05T10:58:05.032Z,114176.00
2019-05-05T10:59:05.023Z,82592.00
2019-05-05T11:00:12.206Z,102656.00
2019-05-05T11:01:06.010Z,62432.00
2019-05-05T11:02:05.233Z,110176.00
2019-05-05T11:03:04.982Z,120032.00
2019-05-05T11:04:04.974Z,57504.00
2019-05-05T11:05:04.963Z,64832.00
2019-05-05T11:06:04.948Z,62400.00
2019-05-05T11:07:04.939Z,38528.00
2019-05-05T11:08:04.928Z,29728.00
2019-05-05T11:09:04.923Z,26944.00
2019-05-05T11:10:04.907Z,22080.00
2019-05-05T11:11:04.896Z,19456.00
2019-05-05T11:12:04.886Z,17248.00
2019-05-05T11:13:04.882Z,15404.00
2019-05-05T11:14:04.867Z,14608.00
2019-05-05T11:15:04.853Z,14296.00
2019-05-05T11:16:04.842Z,14432.00
2019-05-05T11:17:04.834Z,14896.00
2019-05-05T11:18:04.821Z,15252.00
2019-05-05T11:19:04.812Z,16008.00
2019-05-05T11:20:04.800Z,20320.00
2019-05-05T11:21:04.790Z,22272.00
2019-05-05T11:22:04.779Z,21024.00
2019-05-05T11:23:04.977Z,18560.00
2019-05-05T11:24:04.757Z,20480.00
2019-05-05T11:25:05.154Z,111680.00
2019-05-05T11:26:04.734Z,20320.00
2019-05-05T11:27:04.723Z,17600.00
2019-05-05T11:28:04.714Z,17120.00
2019-05-05T11:29:04.742Z,15860.00
2019-05-05T11:30:04.691Z,15388.00
2019-05-05T11:31:04.681Z,15232.00
2019-05-05T11:32:04.672Z,16312.00
2019-05-05T11:33:04.665Z,15984.00
2019-05-05T11:34:04.650Z,17888.00
2019-05-05T11:35:04.800Z,115936.00
2019-05-05T11:36:04.639Z,36032.00
2019-05-05T11:37:04.620Z,29504.00
2019-05-05T11:38:04.608Z,44160.00
2019-05-05T11:39:04.593Z,29120.00
2019-05-05T11:40:04.583Z,39936.00
2019-05-05T11:41:04.996Z,21248.00
2019-05-05T11:42:04.584Z,36224.00
2019-05-05T11:43:04.551Z,105248.00
2019-05-05T11:44:04.539Z,112192.00
2019-05-05T11:45:04.529Z,108032.00
2019-05-05T11:46:04.519Z,114176.00
2019-05-05T11:47:04.507Z,118592.00
2019-05-05T11:48:04.497Z,115008.00
2019-05-05T11:49:04.991Z,120864.00
2019-05-05T11:50:04.480Z,120512.00
2019-05-05T11:51:04.694Z,121824.00
2019-05-05T11:52:04.709Z,124512.00
2019-05-05T11:53:04.444Z,128256.00
2019-05-05T11:54:04.791Z,85152.00
2019-05-05T11:55:11.920Z,123680.00
2019-05-05T11:56:05.412Z,117088.00
2019-05-05T11:57:04.578Z,59072.00
2019-05-05T11:58:04.390Z,58624.00
2019-05-05T11:59:04.390Z,48288.00
2019-05-05T12:00:04.371Z,40384.00
2019-05-05T12:01:04.367Z,23744.00
2019-05-05T12:02:04.350Z,17728.00
2019-05-05T12:03:04.339Z,15660.00
2019-05-05T12:04:04.330Z,14664.00
2019-05-05T12:05:04.635Z,13896.00
2019-05-05T12:06:04.308Z,13372.00
2019-05-05T12:07:04.298Z,13016.00
2019-05-05T12:08:04.286Z,12852.00
2019-05-05T12:09:04.276Z,12956.00
2019-05-05T12:10:04.264Z,13216.00
2019-05-05T12:11:04.687Z,13352.00
2019-05-05T12:12:04.244Z,13664.00